sensor_id;sensor_type;location;lat;lon;timestamp;pressure;altitude;pressure_sealevel;temperature;humidity
41800;BME280;27468;47.460;19.034;2023-01-30T00:00:32;101060.91;;;-2.47;67.92
41800;BME280;27468;47.460;19.034;2023-01-30T00:02:57;101053.19;;;-2.47;68.22
41800;BME280;27468;47.460;19.034;2023-01-30T00:05:23;100990.28;;;-2.89;68.69
41800;BME280;27468;47.460;19.034;2023-01-30T00:07:48;101034.44;;;-2.62;68.88
41800;BME280;27468;47.460;19.034;2023-01-30T00:10:14;100960.47;;;-3.02;68.84
41800;BME280;27468;47.460;19.034;2023-01-30T00:12:39;101022.00;;;-2.71;69.15
41800;BME280;27468;47.460;19.034;2023-01-30T00:15:05;101048.28;;;-2.60;68.98
41800;BME280;27468;47.460;19.034;2023-01-30T00:17:31;101034.38;;;-2.63;69.66
41800;BME280;27468;47.460;19.034;2023-01-30T00:19:57;101033.34;;;-2.67;69.56
41800;BME280;27468;47.460;19.034;2023-01-30T00:22:22;100997.69;;;-2.96;69.93
41800;BME280;27468;47.460;19.034;2023-01-30T00:24:48;101018.06;;;-2.82;70.03
41800;BME280;27468;47.460;19.034;2023-01-30T00:27:13;101040.75;;;-2.75;70.13
41800;BME280;27468;47.460;19.034;2023-01-30T00:29:38;101030.91;;;-2.83;70.31
41800;BME280;27468;47.460;19.034;2023-01-30T00:32:04;101024.63;;;-2.90;70.65
41800;BME280;27468;47.460;19.034;2023-01-30T00:34:29;101029.34;;;-2.80;71.14
41800;BME280;27468;47.460;19.034;2023-01-30T00:36:55;101018.75;;;-2.86;71.03
41800;BME280;27468;47.460;19.034;2023-01-30T00:39:20;101016.91;;;-2.88;71.50
41800;BME280;27468;47.460;19.034;2023-01-30T00:41:46;101010.72;;;-2.93;71.70
41800;BME280;27468;47.460;19.034;2023-01-30T00:44:30;100965.69;;;-3.19;71.67
41800;BME280;27468;47.460;19.034;2023-01-30T00:47:14;101009.69;;;-2.97;72.36
41800;BME280;27468;47.460;19.034;2023-01-30T00:49:40;101021.84;;;-2.94;72.59
41800;BME280;27468;47.460;19.034;2023-01-30T00:52:06;100962.78;;;-3.27;72.86
41800;BME280;27468;47.460;19.034;2023-01-30T00:54:32;101016.91;;;-2.88;72.93
41800;BME280;27468;47.460;19.034;2023-01-30T00:56:58;100990.47;;;-3.04;73.28
41800;BME280;27468;47.460;19.034;2023-01-30T00:59:24;100969.28;;;-3.16;73.29
41800;BME280;27468;47.460;19.034;2023-01-30T01:01:50;101013.44;;;-2.90;73.61
41800;BME280;27468;47.460;19.034;2023-01-30T01:04:15;101000.13;;;-3.00;73.59
41800;BME280;27468;47.460;19.034;2023-01-30T01:06:41;100996.59;;;-3.02;73.83
41800;BME280;27468;47.460;19.034;2023-01-30T01:09:06;100905.81;;;-3.52;73.58
41800;BME280;27468;47.460;19.034;2023-01-30T01:11:32;100996.03;;;-2.94;73.89
41800;BME280;27468;47.460;19.034;2023-01-30T01:13:59;100998.56;;;-2.96;73.74
41800;BME280;27468;47.460;19.034;2023-01-30T01:16:26;100953.56;;;-3.22;73.99
41800;BME280;27468;47.460;19.034;2023-01-30T01:18:53;101006.22;;;-2.97;73.97
41800;BME280;27468;47.460;19.034;2023-01-30T01:21:19;100990.69;;;-2.99;74.34
41800;BME280;27468;47.460;19.034;2023-01-30T01:23:49;100950.16;;;-3.21;74.27
41800;BME280;27468;47.460;19.034;2023-01-30T01:26:15;100988.03;;;-3.01;74.44
41800;BME280;27468;47.460;19.034;2023-01-30T01:28:40;100983.75;;;-3.00;74.50
41800;BME280;27468;47.460;19.034;2023-01-30T01:31:10;100924.03;;;-3.28;74.22
41800;BME280;27468;47.460;19.034;2023-01-30T01:33:36;100896.38;;;-3.52;74.31
41800;BME280;27468;47.460;19.034;2023-01-30T01:36:01;100942.28;;;-3.24;74.34
41800;BME280;27468;47.460;19.034;2023-01-30T01:38:27;100901.66;;;-3.49;74.47
41800;BME280;27468;47.460;19.034;2023-01-30T01:40:52;100935.09;;;-3.31;74.43
41800;BME280;27468;47.460;19.034;2023-01-30T01:43:32;100977.31;;;-3.10;75.02
41800;BME280;27468;47.460;19.034;2023-01-30T01:46:01;100950.22;;;-3.19;75.27
41800;BME280;27468;47.460;19.034;2023-01-30T01:48:33;100958.44;;;-3.09;75.53
41800;BME280;27468;47.460;19.034;2023-01-30T01:51:04;100962.84;;;-3.06;75.27
41800;BME280;27468;47.460;19.034;2023-01-30T01:53:37;100965.50;;;-3.05;75.11
41800;BME280;27468;47.460;19.034;2023-01-30T01:56:04;100950.84;;;-3.06;75.16
41800;BME280;27468;47.460;19.034;2023-01-30T01:58:37;100941.88;;;-3.14;75.47
41800;BME280;27468;47.460;19.034;2023-01-30T02:01:05;100942.00;;;-3.11;75.54
41800;BME280;27468;47.460;19.034;2023-01-30T02:03:35;100930.63;;;-3.16;75.85
41800;BME280;27468;47.460;19.034;2023-01-30T02:06:02;100917.25;;;-3.26;75.70
41800;BME280;27468;47.460;19.034;2023-01-30T02:08:33;100935.78;;;-3.16;75.40
41800;BME280;27468;47.460;19.034;2023-01-30T02:13:31;100929.81;;;-3.15;75.34
41800;BME280;27468;47.460;19.034;2023-01-30T02:15:59;100814.31;;;-3.81;75.81
41800;BME280;27468;47.460;19.034;2023-01-30T02:18:26;100922.81;;;-3.17;75.60
41800;BME280;27468;47.460;19.034;2023-01-30T02:34:41;100852.34;;;-3.56;76.20
41800;BME280;27468;47.460;19.034;2023-01-30T02:45:47;100889.44;;;-3.34;76.43
41800;BME280;27468;47.460;19.034;2023-01-30T02:48:45;100879.19;;;-3.32;76.79
41800;BME280;27468;47.460;19.034;2023-01-30T02:51:26;100869.47;;;-3.38;77.06
41800;BME280;27468;47.460;19.034;2023-01-30T02:53:54;100784.28;;;-3.81;76.97
41800;BME280;27468;47.460;19.034;2023-01-30T02:56:19;100845.91;;;-3.47;77.27
41800;BME280;27468;47.460;19.034;2023-01-30T02:58:48;100858.91;;;-3.44;77.15
41800;BME280;27468;47.460;19.034;2023-01-30T03:01:25;100849.47;;;-3.43;77.64
41800;BME280;27468;47.460;19.034;2023-01-30T03:07:01;100828.22;;;-3.58;77.41
41800;BME280;27468;47.460;19.034;2023-01-30T03:12:17;100812.88;;;-3.75;77.57
41800;BME280;27468;47.460;19.034;2023-01-30T03:14:59;100862.00;;;-3.52;77.66
41800;BME280;27468;47.460;19.034;2023-01-30T03:17:26;100860.22;;;-3.53;77.56
41800;BME280;27468;47.460;19.034;2023-01-30T03:19:54;100828.06;;;-3.81;77.96
41800;BME280;27468;47.460;19.034;2023-01-30T03:22:21;100833.50;;;-3.75;77.90
41800;BME280;27468;47.460;19.034;2023-01-30T03:24:48;100818.03;;;-3.75;78.46
41800;BME280;27468;47.460;19.034;2023-01-30T03:27:15;100853.03;;;-3.60;78.51
41800;BME280;27468;47.460;19.034;2023-01-30T03:29:40;100832.88;;;-3.69;78.57
41800;BME280;27468;47.460;19.034;2023-01-30T03:32:06;100831.06;;;-3.72;79.00
41800;BME280;27468;47.460;19.034;2023-01-30T03:34:31;100833.63;;;-3.72;79.13
41800;BME280;27468;47.460;19.034;2023-01-30T03:36:57;100825.22;;;-3.68;79.06
41800;BME280;27468;47.460;19.034;2023-01-30T03:39:23;100821.78;;;-3.68;79.22
41800;BME280;27468;47.460;19.034;2023-01-30T03:41:49;100771.75;;;-3.92;79.13
41800;BME280;27468;47.460;19.034;2023-01-30T03:44:15;100811.41;;;-3.70;79.50
41800;BME280;27468;47.460;19.034;2023-01-30T03:46:40;100753.38;;;-4.00;79.01
41800;BME280;27468;47.460;19.034;2023-01-30T03:49:06;100805.38;;;-3.70;79.41
41800;BME280;27468;47.460;19.034;2023-01-30T03:51:31;100822.84;;;-3.63;79.42
41800;BME280;27468;47.460;19.034;2023-01-30T03:53:56;100820.97;;;-3.67;79.44
41800;BME280;27468;47.460;19.034;2023-01-30T03:56:22;100813.09;;;-3.70;79.82
41800;BME280;27468;47.460;19.034;2023-01-30T03:58:47;100812.22;;;-3.71;79.39
41800;BME280;27468;47.460;19.034;2023-01-30T04:01:13;100750.72;;;-4.02;79.47
41800;BME280;27468;47.460;19.034;2023-01-30T04:03:38;100797.63;;;-3.70;79.53
41800;BME280;27468;47.460;19.034;2023-01-30T04:06:05;100742.19;;;-4.01;79.23
41800;BME280;27468;47.460;19.034;2023-01-30T04:08:30;100741.16;;;-4.04;79.36
41800;BME280;27468;47.460;19.034;2023-01-30T04:10:55;100790.38;;;-3.79;79.79
41800;BME280;27468;47.460;19.034;2023-01-30T04:13:21;100763.19;;;-3.91;79.63
41800;BME280;27468;47.460;19.034;2023-01-30T04:15:46;100731.56;;;-4.08;79.30
41800;BME280;27468;47.460;19.034;2023-01-30T04:18:12;100793.09;;;-3.76;79.29
41800;BME280;27468;47.460;19.034;2023-01-30T04:20:37;100805.28;;;-3.72;79.27
41800;BME280;27468;47.460;19.034;2023-01-30T04:23:03;100803.53;;;-3.73;79.23
41800;BME280;27468;47.460;19.034;2023-01-30T04:25:28;100783.00;;;-3.90;79.96
41800;BME280;27468;47.460;19.034;2023-01-30T04:27:54;100794.38;;;-3.85;79.88
41800;BME280;27468;47.460;19.034;2023-01-30T04:30:19;100771.00;;;-3.90;79.87
41800;BME280;27468;47.460;19.034;2023-01-30T04:32:45;100793.09;;;-3.76;79.86
41800;BME280;27468;47.460;19.034;2023-01-30T04:35:10;100782.50;;;-3.82;79.71
41800;BME280;27468;47.460;19.034;2023-01-30T04:37:35;100731.44;;;-4.11;79.92
41800;BME280;27468;47.460;19.034;2023-01-30T04:40:01;100755.06;;;-4.01;80.24
41800;BME280;27468;47.460;19.034;2023-01-30T04:42:26;100753.38;;;-4.00;80.53
41800;BME280;27468;47.460;19.034;2023-01-30T04:44:52;100758.59;;;-3.99;81.10
41800;BME280;27468;47.460;19.034;2023-01-30T04:47:17;100747.34;;;-4.01;80.92
41800;BME280;27468;47.460;19.034;2023-01-30T04:49:42;100695.72;;;-4.23;80.44
41800;BME280;27468;47.460;19.034;2023-01-30T04:52:08;100667.34;;;-4.44;80.85
41800;BME280;27468;47.460;19.034;2023-01-30T04:54:33;100749.09;;;-4.00;80.87
41800;BME280;27468;47.460;19.034;2023-01-30T04:56:59;100766.53;;;-3.94;80.67
41800;BME280;27468;47.460;19.034;2023-01-30T04:59:25;100761.38;;;-3.94;80.90
41800;BME280;27468;47.460;19.034;2023-01-30T05:01:50;100754.94;;;-4.04;80.93
41800;BME280;27468;47.460;19.034;2023-01-30T05:04:15;100758.66;;;-3.97;81.48
41800;BME280;27468;47.460;19.034;2023-01-30T05:06:41;100756.75;;;-4.01;81.46
41800;BME280;27468;47.460;19.034;2023-01-30T05:09:06;100749.59;;;-4.08;81.70
41800;BME280;27468;47.460;19.034;2023-01-30T05:11:32;100752.03;;;-4.11;81.85
41800;BME280;27468;47.460;19.034;2023-01-30T05:13:58;100743.16;;;-4.18;82.20
41800;BME280;27468;47.460;19.034;2023-01-30T05:16:24;100750.28;;;-4.12;82.08
41800;BME280;27468;47.460;19.034;2023-01-30T05:18:50;100761.53;;;-4.10;81.78
41800;BME280;27468;47.460;19.034;2023-01-30T05:21:21;100741.13;;;-4.25;81.75
41800;BME280;27468;47.460;19.034;2023-01-30T05:23:47;100676.19;;;-4.56;81.97
41800;BME280;27468;47.460;19.034;2023-01-30T05:26:13;100748.38;;;-4.16;82.09
41800;BME280;27468;47.460;19.034;2023-01-30T05:28:40;100743.38;;;-4.13;81.83
41800;BME280;27468;47.460;19.034;2023-01-30T05:31:08;100737.88;;;-4.21;82.05
41800;BME280;27468;47.460;19.034;2023-01-30T05:33:34;100718.41;;;-4.34;81.86
41800;BME280;27468;47.460;19.034;2023-01-30T05:35:59;100659.63;;;-4.63;82.04
41800;BME280;27468;47.460;19.034;2023-01-30T05:38:25;100718.56;;;-4.30;82.40
41800;BME280;27468;47.460;19.034;2023-01-30T05:41:06;100746.47;;;-4.20;82.90
41800;BME280;27468;47.460;19.034;2023-01-30T05:43:32;100739.69;;;-4.18;82.86
41800;BME280;27468;47.460;19.034;2023-01-30T05:46:00;100742.47;;;-4.14;82.78
41800;BME280;27468;47.460;19.034;2023-01-30T05:48:26;100737.47;;;-4.11;82.93
41800;BME280;27468;47.460;19.034;2023-01-30T05:50:54;100742.41;;;-4.15;83.14
41800;BME280;27468;47.460;19.034;2023-01-30T05:53:21;100742.56;;;-4.12;82.73
41800;BME280;27468;47.460;19.034;2023-01-30T05:55:54;100724.06;;;-4.23;82.55
41800;BME280;27468;47.460;19.034;2023-01-30T05:58:19;100737.28;;;-4.15;82.45
41800;BME280;27468;47.460;19.034;2023-01-30T06:00:44;100753.81;;;-4.10;82.49
41800;BME280;27468;47.460;19.034;2023-01-30T06:03:10;100730.81;;;-4.25;82.92
41800;BME280;27468;47.460;19.034;2023-01-30T06:05:36;100753.59;;;-4.15;82.75
41800;BME280;27468;47.460;19.034;2023-01-30T06:08:02;100670.03;;;-4.60;82.72
41800;BME280;27468;47.460;19.034;2023-01-30T06:10:27;100738.63;;;-4.23;82.80
41800;BME280;27468;47.460;19.034;2023-01-30T06:12:53;100676.28;;;-4.55;82.61
41800;BME280;27468;47.460;19.034;2023-01-30T06:15:18;100692.47;;;-4.38;82.90
41800;BME280;27468;47.460;19.034;2023-01-30T06:17:44;100702.22;;;-4.31;82.79
41800;BME280;27468;47.460;19.034;2023-01-30T06:20:10;100749.84;;;-4.02;82.58
41800;BME280;27468;47.460;19.034;2023-01-30T06:22:36;100747.34;;;-4.01;82.62
41800;BME280;27468;47.460;19.034;2023-01-30T06:25:02;100632.22;;;-4.62;82.88
41800;BME280;27468;47.460;19.034;2023-01-30T06:27:28;100735.09;;;-4.06;82.97
41800;BME280;27468;47.460;19.034;2023-01-30T06:29:53;100701.03;;;-4.20;82.81
41800;BME280;27468;47.460;19.034;2023-01-30T06:32:19;100728.28;;;-4.04;82.69
41800;BME280;27468;47.460;19.034;2023-01-30T06:34:44;100669.44;;;-4.35;82.78
41800;BME280;27468;47.460;19.034;2023-01-30T06:37:09;100741.03;;;-3.88;83.11
41800;BME280;27468;47.460;19.034;2023-01-30T06:39:35;100728.28;;;-3.85;83.11
41800;BME280;27468;47.460;19.034;2023-01-30T06:42:00;100727.25;;;-3.69;83.18
41800;BME280;27468;47.460;19.034;2023-01-30T06:44:26;100710.97;;;-3.68;83.47
41800;BME280;27468;47.460;19.034;2023-01-30T06:46:51;100711.75;;;-3.50;83.29
41800;BME280;27468;47.460;19.034;2023-01-30T06:49:17;100706.75;;;-3.45;83.19
41800;BME280;27468;47.460;19.034;2023-01-30T06:51:42;100641.09;;;-3.76;82.66
41800;BME280;27468;47.460;19.034;2023-01-30T06:54:08;100665.50;;;-3.47;82.37
41800;BME280;27468;47.460;19.034;2023-01-30T06:56:33;100723.81;;;-3.07;82.52
41800;BME280;27468;47.460;19.034;2023-01-30T06:58:58;100698.66;;;-3.13;82.05
41800;BME280;27468;47.460;19.034;2023-01-30T07:01:24;100707.25;;;-2.91;81.91
41800;BME280;27468;47.460;19.034;2023-01-30T07:03:49;100721.78;;;-2.71;81.43
41800;BME280;27468;47.460;19.034;2023-01-30T07:06:15;100712.69;;;-2.61;81.31
41800;BME280;27468;47.460;19.034;2023-01-30T07:08:40;100641.81;;;-2.93;80.81
41800;BME280;27468;47.460;19.034;2023-01-30T07:11:06;100704.59;;;-2.48;80.43
41800;BME280;27468;47.460;19.034;2023-01-30T07:13:31;100709.88;;;-2.45;80.41
41800;BME280;27468;47.460;19.034;2023-01-30T07:15:57;100701.25;;;-2.46;79.71
41800;BME280;27468;47.460;19.034;2023-01-30T07:18:22;100701.53;;;-2.38;79.61
41800;BME280;27468;47.460;19.034;2023-01-30T07:20:48;100708.94;;;-2.23;79.41
41800;BME280;27468;47.460;19.034;2023-01-30T07:23:13;100684.81;;;-2.24;79.39
41800;BME280;27468;47.460;19.034;2023-01-30T07:25:39;100691.97;;;-2.17;79.27
41800;BME280;27468;47.460;19.034;2023-01-30T07:28:04;100694.06;;;-2.07;79.12
41800;BME280;27468;47.460;19.034;2023-01-30T07:30:32;100623.41;;;-2.33;78.99
41800;BME280;27468;47.460;19.034;2023-01-30T07:33:00;100655.38;;;-2.05;78.58
41800;BME280;27468;47.460;19.034;2023-01-30T07:35:27;100680.84;;;-1.90;78.62
41800;BME280;27468;47.460;19.034;2023-01-30T07:37:53;100697.09;;;-1.69;78.24
41800;BME280;27468;47.460;19.034;2023-01-30T07:40:20;100681.03;;;-1.86;77.99
41800;BME280;27468;47.460;19.034;2023-01-30T07:43:15;100697.34;;;-1.61;77.85
41800;BME280;27468;47.460;19.034;2023-01-30T07:45:45;100662.66;;;-1.68;77.73
41800;BME280;27468;47.460;19.034;2023-01-30T07:48:14;100698.03;;;-1.42;77.51
41800;BME280;27468;47.460;19.034;2023-01-30T07:50:40;100635.00;;;-1.71;77.31
41800;BME280;27468;47.460;19.034;2023-01-30T07:53:07;100679.44;;;-1.30;76.80
41800;BME280;27468;47.460;19.034;2023-01-30T07:55:33;100687.59;;;-1.18;76.64
41800;BME280;27468;47.460;19.034;2023-01-30T07:57:59;100685.28;;;-1.09;76.79
41800;BME280;27468;47.460;19.034;2023-01-30T08:00:25;100639.91;;;-1.26;76.14
41800;BME280;27468;47.460;19.034;2023-01-30T08:02:50;100583.16;;;-1.48;76.15
41800;BME280;27468;47.460;19.034;2023-01-30T08:05:16;100677.47;;;-0.83;75.80
41800;BME280;27468;47.460;19.034;2023-01-30T08:07:41;100638.25;;;-0.95;75.72
41800;BME280;27468;47.460;19.034;2023-01-30T08:10:07;100664.72;;;-0.77;75.65
41800;BME280;27468;47.460;19.034;2023-01-30T08:12:33;100649.09;;;-0.80;74.96
41800;BME280;27468;47.460;19.034;2023-01-30T08:14:59;100589.75;;;-1.03;74.92
41800;BME280;27468;47.460;19.034;2023-01-30T08:17:24;100648.91;;;-0.56;74.85
41800;BME280;27468;47.460;19.034;2023-01-30T08:19:49;100578.19;;;-0.85;74.44
41800;BME280;27468;47.460;19.034;2023-01-30T08:22:15;100596.25;;;-0.57;74.56
41800;BME280;27468;47.460;19.034;2023-01-30T08:24:40;100597.28;;;-0.50;74.42
41800;BME280;27468;47.460;19.034;2023-01-30T08:27:06;100599.97;;;-0.47;74.17
41800;BME280;27468;47.460;19.034;2023-01-30T08:29:31;100598.59;;;-0.35;73.78
41800;BME280;27468;47.460;19.034;2023-01-30T08:31:57;100549.75;;;-0.52;73.72
41800;BME280;27468;47.460;19.034;2023-01-30T08:34:23;100537.72;;;-0.50;73.44
41800;BME280;27468;47.460;19.034;2023-01-30T08:36:49;100605.25;;;-0.13;73.08
41800;BME280;27468;47.460;19.034;2023-01-30T08:39:14;100606.41;;;-0.02;72.91
41800;BME280;27468;47.460;19.034;2023-01-30T08:41:40;100601.47;;;0.09;72.54
41800;BME280;27468;47.460;19.034;2023-01-30T08:44:08;100523.63;;;-0.28;72.00
41800;BME280;27468;47.460;19.034;2023-01-30T08:46:34;100591.19;;;0.12;71.66
41800;BME280;27468;47.460;19.034;2023-01-30T08:48:59;100584.41;;;0.17;71.42
41800;BME280;27468;47.460;19.034;2023-01-30T08:51:25;100536.28;;;-0.08;71.14
41800;BME280;27468;47.460;19.034;2023-01-30T08:53:50;100604.72;;;0.35;71.39
41800;BME280;27468;47.460;19.034;2023-01-30T08:56:16;100587.28;;;0.28;71.09
41800;BME280;27468;47.460;19.034;2023-01-30T08:58:41;100603.13;;;0.40;71.41
41800;BME280;27468;47.460;19.034;2023-01-30T09:01:08;100603.22;;;0.43;71.70
41800;BME280;27468;47.460;19.034;2023-01-30T09:03:34;100585.97;;;0.45;71.68
41800;BME280;27468;47.460;19.034;2023-01-30T09:05:59;100579.22;;;0.52;71.45
41800;BME280;27468;47.460;19.034;2023-01-30T09:08:25;100565.50;;;0.57;71.27
41800;BME280;27468;47.460;19.034;2023-01-30T09:10:50;100606.56;;;0.75;71.58
41800;BME280;27468;47.460;19.034;2023-01-30T09:13:15;100575.28;;;0.69;71.49
41800;BME280;27468;47.460;19.034;2023-01-30T09:15:42;100593.94;;;0.90;71.26
41800;BME280;27468;47.460;19.034;2023-01-30T09:18:08;100586.44;;;1.04;71.28
41800;BME280;27468;47.460;19.034;2023-01-30T09:20:33;100560.38;;;0.99;71.44
41800;BME280;27468;47.460;19.034;2023-01-30T09:23:00;100582.50;;;1.23;71.19
41800;BME280;27468;47.460;19.034;2023-01-30T09:25:25;100579.91;;;1.23;70.76
41800;BME280;27468;47.460;19.034;2023-01-30T09:27:51;100572.19;;;1.26;70.69
41800;BME280;27468;47.460;19.034;2023-01-30T09:30:17;100576.75;;;1.38;70.54
41800;BME280;27468;47.460;19.034;2023-01-30T09:32:42;100570.06;;;1.49;70.32
41800;BME280;27468;47.460;19.034;2023-01-30T09:35:08;100537.84;;;1.41;70.01
41800;BME280;27468;47.460;19.034;2023-01-30T09:37:33;100548.56;;;1.57;69.48
41800;BME280;27468;47.460;19.034;2023-01-30T09:39:59;100544.28;;;1.59;69.44
41800;BME280;27468;47.460;19.034;2023-01-30T09:48:24;100522.88;;;1.73;69.23
41800;BME280;27468;47.460;19.034;2023-01-30T09:56:18;100510.94;;;1.85;69.16
41800;BME280;27468;47.460;19.034;2023-01-30T09:58:53;100517.75;;;1.79;69.00
41800;BME280;27468;47.460;19.034;2023-01-30T10:01:26;100509.06;;;1.78;69.09
41800;BME280;27468;47.460;19.034;2023-01-30T10:06:42;100492.66;;;1.81;69.35
41800;BME280;27468;47.460;19.034;2023-01-30T10:09:18;100504.84;;;1.83;69.41
41800;BME280;27468;47.460;19.034;2023-01-30T10:11:59;100482.41;;;1.88;69.64
41800;BME280;27468;47.460;19.034;2023-01-30T10:17:31;100432.91;;;1.82;69.76
41800;BME280;27468;47.460;19.034;2023-01-30T10:20:20;100480.34;;;2.22;69.73
41800;BME280;27468;47.460;19.034;2023-01-30T10:25:43;100444.97;;;2.36;68.69
41800;BME280;27468;47.460;19.034;2023-01-30T10:30:52;100430.75;;;2.73;66.94
41800;BME280;27468;47.460;19.034;2023-01-30T10:33:32;100440.53;;;2.94;66.70
41800;BME280;27468;47.460;19.034;2023-01-30T10:36:03;100342.78;;;2.46;66.02
41800;BME280;27468;47.460;19.034;2023-01-30T10:38:47;100431.16;;;3.08;65.53
41800;BME280;27468;47.460;19.034;2023-01-30T10:44:10;100419.88;;;3.09;64.11
41800;BME280;27468;47.460;19.034;2023-01-30T11:00:27;100373.34;;;3.44;63.21
41800;BME280;27468;47.460;19.034;2023-01-30T11:05:53;100322.78;;;3.24;63.17
41800;BME280;27468;47.460;19.034;2023-01-30T11:08:29;100364.63;;;3.47;63.33
41800;BME280;27468;47.460;19.034;2023-01-30T11:10:55;100346.41;;;3.45;63.55
41800;BME280;27468;47.460;19.034;2023-01-30T11:13:32;100335.13;;;3.46;63.48
41800;BME280;27468;47.460;19.034;2023-01-30T11:16:07;100320.34;;;3.45;63.83
41800;BME280;27468;47.460;19.034;2023-01-30T11:18:44;100331.69;;;3.53;63.90
41800;BME280;27468;47.460;19.034;2023-01-30T11:21:19;100269.81;;;3.26;63.98
41800;BME280;27468;47.460;19.034;2023-01-30T11:23:47;100323.91;;;3.61;64.25
41800;BME280;27468;47.460;19.034;2023-01-30T11:26:24;100254.28;;;3.40;64.35
41800;BME280;27468;47.460;19.034;2023-01-30T11:28:53;100296.22;;;3.74;64.42
41800;BME280;27468;47.460;19.034;2023-01-30T11:31:23;100306.69;;;3.80;64.49
41800;BME280;27468;47.460;19.034;2023-01-30T11:34:01;100242.19;;;3.51;64.40
41800;BME280;27468;47.460;19.034;2023-01-30T11:36:32;100289.31;;;3.85;63.96
41800;BME280;27468;47.460;19.034;2023-01-30T11:39:04;100278.91;;;3.85;63.92
41800;BME280;27468;47.460;19.034;2023-01-30T11:44:24;100267.56;;;3.78;64.42
41800;BME280;27468;47.460;19.034;2023-01-30T11:46:50;100266.75;;;3.88;64.65
41800;BME280;27468;47.460;19.034;2023-01-30T11:49:18;100273.72;;;3.94;64.80
41800;BME280;27468;47.460;19.034;2023-01-30T11:51:46;100218.81;;;3.67;64.63
41800;BME280;27468;47.460;19.034;2023-01-30T11:54:26;100251.09;;;3.87;64.70
41800;BME280;27468;47.460;19.034;2023-01-30T11:56:55;100244.97;;;3.83;64.68
41800;BME280;27468;47.460;19.034;2023-01-30T11:59:58;100213.59;;;3.65;64.48
41800;BME280;27468;47.460;19.034;2023-01-30T12:02:30;100242.34;;;3.76;63.97
41800;BME280;27468;47.460;19.034;2023-01-30T12:05:02;100172.56;;;3.26;64.17
41800;BME280;27468;47.460;19.034;2023-01-30T12:07:30;100245.72;;;3.64;64.39
41800;BME280;27468;47.460;19.034;2023-01-30T12:09:57;100190.81;;;3.30;64.43
41800;BME280;27468;47.460;19.034;2023-01-30T12:15:04;100240.44;;;3.50;64.85
41800;BME280;27468;47.460;19.034;2023-01-30T12:25:37;100209.22;;;3.62;64.75
41800;BME280;27468;47.460;19.034;2023-01-30T12:31:32;100187.56;;;3.71;64.90
41800;BME280;27468;47.460;19.034;2023-01-30T12:34:02;100171.03;;;3.72;64.86
41800;BME280;27468;47.460;19.034;2023-01-30T12:52:32;100175.47;;;3.93;63.10
41800;BME280;27468;47.460;19.034;2023-01-30T12:55:22;100113.63;;;3.57;63.28
41800;BME280;27468;47.460;19.034;2023-01-30T13:09:38;100147.69;;;4.04;63.01
41800;BME280;27468;47.460;19.034;2023-01-30T13:15:02;100125.94;;;4.05;62.67
41800;BME280;27468;47.460;19.034;2023-01-30T13:23:28;100126.84;;;4.27;63.00
41800;BME280;27468;47.460;19.034;2023-01-30T13:28:33;100105.09;;;4.19;62.55
41800;BME280;27468;47.460;19.034;2023-01-30T13:31:01;100124.22;;;4.15;61.98
41800;BME280;27468;47.460;19.034;2023-01-30T13:33:34;100075.50;;;3.91;61.78
41800;BME280;27468;47.460;19.034;2023-01-30T13:36:22;100119.00;;;4.18;61.85
41800;BME280;27468;47.460;19.034;2023-01-30T13:38:57;100123.38;;;4.22;61.81
41800;BME280;27468;47.460;19.034;2023-01-30T13:41:24;100045.91;;;3.74;61.35
41800;BME280;27468;47.460;19.034;2023-01-30T13:43:52;100061.59;;;3.86;61.21
41800;BME280;27468;47.460;19.034;2023-01-30T13:46:24;100101.59;;;4.11;60.70
41800;BME280;27468;47.460;19.034;2023-01-30T13:49:18;100112.03;;;4.05;60.58
41800;BME280;27468;47.460;19.034;2023-01-30T13:51:56;100124.22;;;4.10;60.32
41800;BME280;27468;47.460;19.034;2023-01-30T14:02:21;100109.41;;;4.08;59.28
41800;BME280;27468;47.460;19.034;2023-01-30T14:04:56;100092.91;;;4.10;60.10
41800;BME280;27468;47.460;19.034;2023-01-30T14:07:26;100049.44;;;3.97;59.87
41800;BME280;27468;47.460;19.034;2023-01-30T14:12:36;100107.72;;;4.22;59.73
41800;BME280;27468;47.460;19.034;2023-01-30T14:20:27;100092.03;;;4.07;60.16
41800;BME280;27468;47.460;19.034;2023-01-30T14:23:00;100092.94;;;4.04;60.46
41800;BME280;27468;47.460;19.034;2023-01-30T14:38:36;100111.19;;;4.16;62.20
41800;BME280;27468;47.460;19.034;2023-01-30T14:48:42;100096.41;;;4.00;63.48
41800;BME280;27468;47.460;19.034;2023-01-30T14:57:02;100102.44;;;3.90;64.91
41800;BME280;27468;47.460;19.034;2023-01-30T14:59:39;100093.75;;;3.89;64.72
41800;BME280;27468;47.460;19.034;2023-01-30T15:02:17;100051.97;;;3.68;64.89
41800;BME280;27468;47.460;19.034;2023-01-30T15:07:50;100091.16;;;3.88;65.04
41800;BME280;27468;47.460;19.034;2023-01-30T15:27:18;100051.03;;;3.51;65.35
41800;BME280;27468;47.460;19.034;2023-01-30T15:32:41;100070.19;;;3.60;65.94
41800;BME280;27468;47.460;19.034;2023-01-30T15:37:46;100051.06;;;3.45;66.28
41800;BME280;27468;47.460;19.034;2023-01-30T15:50:37;100111.88;;;3.53;67.77
41800;BME280;27468;47.460;19.034;2023-01-30T15:53:03;100117.06;;;3.53;68.04
41800;BME280;27468;47.460;19.034;2023-01-30T15:55:35;100123.16;;;3.53;68.94
41800;BME280;27468;47.460;19.034;2023-01-30T15:58:09;100083.13;;;3.30;69.76
41800;BME280;27468;47.460;19.034;2023-01-30T16:00:36;100123.13;;;3.41;71.38
41800;BME280;27468;47.460;19.034;2023-01-30T16:03:10;100076.94;;;3.08;72.34
41800;BME280;27468;47.460;19.034;2023-01-30T16:05:45;100127.38;;;3.24;72.75
41800;BME280;27468;47.460;19.034;2023-01-30T16:08:19;100129.13;;;3.25;73.46
41800;BME280;27468;47.460;19.034;2023-01-30T16:10:45;100140.41;;;3.22;73.82
41800;BME280;27468;47.460;19.034;2023-01-30T16:13:11;100109.88;;;3.05;74.61
41800;BME280;27468;47.460;19.034;2023-01-30T16:15:45;100072.47;;;2.86;74.95